Aviation Digital Data Service (ADDS)

Output produced by METARs form (0730 UTC 21 July 2018)
found at http://www.aviationweather.gov/adds/metars/
 
Forecast for: LTCI (VAN , TR)
Text: TAF LTCI 210440Z 2106/2115 27008KT CAVOK
Forecast period: 0600 to 1500 UTC 21 July 2018
Forecast type: FROM: standard forecast or significant change
Winds: from the W (270 degrees) at 9 MPH (8 knots; 4.2 m/s)
Visibility: 6 or more miles (10+ km)
Clouds: not forecast
Weather: NSW  (no significant weather)